sensor_id;sensor_type;location;lat;lon;timestamp;temperature;humidity
3053;DHT22;1536;51.098;6.414;2023-03-25T00:01:33;11.00;99.90
3053;DHT22;1536;51.098;6.414;2023-03-25T00:04:02;11.10;99.90
3053;DHT22;1536;51.098;6.414;2023-03-25T00:06:31;11.00;99.90
3053;DHT22;1536;51.098;6.414;2023-03-25T00:08:59;11.10;99.90
3053;DHT22;1536;51.098;6.414;2023-03-25T00:11:27;11.10;99.90
3053;DHT22;1536;51.098;6.414;2023-03-25T00:13:54;11.10;99.90
3053;DHT22;1536;51.098;6.414;2023-03-25T00:16:20;11.10;99.90
3053;DHT22;1536;51.098;6.414;2023-03-25T00:18:47;11.10;99.90
3053;DHT22;1536;51.098;6.414;2023-03-25T00:21:14;11.10;99.90
3053;DHT22;1536;51.098;6.414;2023-03-25T00:23:44;11.10;99.90
3053;DHT22;1536;51.098;6.414;2023-03-25T00:26:11;11.10;99.90
3053;DHT22;1536;51.098;6.414;2023-03-25T00:28:38;11.10;99.90
3053;DHT22;1536;51.098;6.414;2023-03-25T00:31:06;11.10;99.90
3053;DHT22;1536;51.098;6.414;2023-03-25T00:33:34;11.20;99.90
3053;DHT22;1536;51.098;6.414;2023-03-25T00:36:00;11.20;99.90
3053;DHT22;1536;51.098;6.414;2023-03-25T00:38:31;11.20;99.90
3053;DHT22;1536;51.098;6.414;2023-03-25T00:41:13;11.20;99.90
3053;DHT22;1536;51.098;6.414;2023-03-25T00:43:42;11.10;99.90
3053;DHT22;1536;51.098;6.414;2023-03-25T00:46:09;11.10;99.90
3053;DHT22;1536;51.098;6.414;2023-03-25T00:48:36;11.10;99.90
3053;DHT22;1536;51.098;6.414;2023-03-25T00:51:04;11.10;99.90
3053;DHT22;1536;51.098;6.414;2023-03-25T00:53:34;11.10;99.90
3053;DHT22;1536;51.098;6.414;2023-03-25T00:56:01;11.00;99.90
3053;DHT22;1536;51.098;6.414;2023-03-25T00:58:29;11.00;99.90
3053;DHT22;1536;51.098;6.414;2023-03-25T01:00:56;11.00;99.90
3053;DHT22;1536;51.098;6.414;2023-03-25T01:03:23;10.90;99.90
3053;DHT22;1536;51.098;6.414;2023-03-25T01:05:50;11.00;99.90
3053;DHT22;1536;51.098;6.414;2023-03-25T01:08:19;11.00;99.90
3053;DHT22;1536;51.098;6.414;2023-03-25T01:10:50;11.00;99.90
3053;DHT22;1536;51.098;6.414;2023-03-25T01:13:17;11.00;99.90
3053;DHT22;1536;51.098;6.414;2023-03-25T01:15:45;11.00;99.90
3053;DHT22;1536;51.098;6.414;2023-03-25T01:18:12;10.90;99.90
3053;DHT22;1536;51.098;6.414;2023-03-25T01:20:39;10.90;99.90
3053;DHT22;1536;51.098;6.414;2023-03-25T01:23:06;10.90;99.90
3053;DHT22;1536;51.098;6.414;2023-03-25T01:25:33;10.80;99.90
3053;DHT22;1536;51.098;6.414;2023-03-25T01:28:01;10.80;99.90
3053;DHT22;1536;51.098;6.414;2023-03-25T01:30:28;10.80;99.90
3053;DHT22;1536;51.098;6.414;2023-03-25T01:32:56;10.80;99.90
3053;DHT22;1536;51.098;6.414;2023-03-25T01:35:24;10.70;99.90
3053;DHT22;1536;51.098;6.414;2023-03-25T01:37:51;10.70;99.90
3053;DHT22;1536;51.098;6.414;2023-03-25T01:40:20;10.70;99.90
3053;DHT22;1536;51.098;6.414;2023-03-25T01:42:49;10.70;99.90
3053;DHT22;1536;51.098;6.414;2023-03-25T01:45:20;10.60;99.90
3053;DHT22;1536;51.098;6.414;2023-03-25T01:47:49;10.60;99.90
3053;DHT22;1536;51.098;6.414;2023-03-25T01:50:19;10.60;99.90
3053;DHT22;1536;51.098;6.414;2023-03-25T01:52:48;10.60;99.90
3053;DHT22;1536;51.098;6.414;2023-03-25T01:55:17;10.60;99.90
3053;DHT22;1536;51.098;6.414;2023-03-25T01:57:45;10.50;99.90
3053;DHT22;1536;51.098;6.414;2023-03-25T02:00:14;10.50;99.90
3053;DHT22;1536;51.098;6.414;2023-03-25T02:02:42;10.50;99.90
3053;DHT22;1536;51.098;6.414;2023-03-25T02:05:16;10.50;99.90
3053;DHT22;1536;51.098;6.414;2023-03-25T02:07:47;10.50;99.90
3053;DHT22;1536;51.098;6.414;2023-03-25T02:10:15;10.50;99.90
3053;DHT22;1536;51.098;6.414;2023-03-25T02:12:42;10.50;99.90
3053;DHT22;1536;51.098;6.414;2023-03-25T02:15:11;10.40;99.90
3053;DHT22;1536;51.098;6.414;2023-03-25T02:18:01;10.50;99.90
3053;DHT22;1536;51.098;6.414;2023-03-25T02:30:24;10.40;99.90
3053;DHT22;1536;51.098;6.414;2023-03-25T02:33:11;10.40;99.90
3053;DHT22;1536;51.098;6.414;2023-03-25T02:35:53;10.40;99.90
3053;DHT22;1536;51.098;6.414;2023-03-25T02:38:34;10.40;99.90
3053;DHT22;1536;51.098;6.414;2023-03-25T02:41:09;10.40;99.90
3053;DHT22;1536;51.098;6.414;2023-03-25T02:43:43;10.40;99.90
3053;DHT22;1536;51.098;6.414;2023-03-25T02:46:14;10.40;99.90
3053;DHT22;1536;51.098;6.414;2023-03-25T02:48:47;10.40;99.90
3053;DHT22;1536;51.098;6.414;2023-03-25T02:51:21;10.40;99.90
3053;DHT22;1536;51.098;6.414;2023-03-25T02:53:51;10.40;99.90
3053;DHT22;1536;51.098;6.414;2023-03-25T02:56:22;10.40;99.90
3053;DHT22;1536;51.098;6.414;2023-03-25T02:58:52;10.40;99.90
3053;DHT22;1536;51.098;6.414;2023-03-25T03:01:21;10.50;99.90
3053;DHT22;1536;51.098;6.414;2023-03-25T03:03:51;10.50;99.90
3053;DHT22;1536;51.098;6.414;2023-03-25T03:06:18;10.50;99.90
3053;DHT22;1536;51.098;6.414;2023-03-25T03:09:05;10.50;99.90
3053;DHT22;1536;51.098;6.414;2023-03-25T03:11:40;10.50;99.90
3053;DHT22;1536;51.098;6.414;2023-03-25T03:14:19;10.50;99.90
3053;DHT22;1536;51.098;6.414;2023-03-25T03:16:57;10.50;99.90
3053;DHT22;1536;51.098;6.414;2023-03-25T03:19:33;10.50;99.90
3053;DHT22;1536;51.098;6.414;2023-03-25T03:22:12;10.40;99.90
3053;DHT22;1536;51.098;6.414;2023-03-25T03:24:46;10.40;99.90
3053;DHT22;1536;51.098;6.414;2023-03-25T03:27:16;10.40;99.90
3053;DHT22;1536;51.098;6.414;2023-03-25T03:29:52;10.40;99.90
3053;DHT22;1536;51.098;6.414;2023-03-25T03:32:26;10.40;99.90
3053;DHT22;1536;51.098;6.414;2023-03-25T03:34:56;10.40;99.90
3053;DHT22;1536;51.098;6.414;2023-03-25T03:37:29;10.40;99.90
3053;DHT22;1536;51.098;6.414;2023-03-25T03:40:02;10.40;99.90
3053;DHT22;1536;51.098;6.414;2023-03-25T03:42:33;10.40;99.90
3053;DHT22;1536;51.098;6.414;2023-03-25T03:45:04;10.40;99.90
3053;DHT22;1536;51.098;6.414;2023-03-25T03:47:35;10.50;99.90
3053;DHT22;1536;51.098;6.414;2023-03-25T03:50:07;10.50;99.90
3053;DHT22;1536;51.098;6.414;2023-03-25T03:52:37;10.50;99.90
3053;DHT22;1536;51.098;6.414;2023-03-25T03:55:10;10.50;99.90
3053;DHT22;1536;51.098;6.414;2023-03-25T03:57:41;10.60;99.90
3053;DHT22;1536;51.098;6.414;2023-03-25T04:00:14;10.60;99.90
3053;DHT22;1536;51.098;6.414;2023-03-25T04:02:45;10.50;99.90
3053;DHT22;1536;51.098;6.414;2023-03-25T04:05:16;10.60;99.90
3053;DHT22;1536;51.098;6.414;2023-03-25T04:07:46;10.60;99.90
3053;DHT22;1536;51.098;6.414;2023-03-25T04:10:25;10.60;99.90
3053;DHT22;1536;51.098;6.414;2023-03-25T04:12:54;10.50;99.90
3053;DHT22;1536;51.098;6.414;2023-03-25T04:15:24;10.60;99.90
3053;DHT22;1536;51.098;6.414;2023-03-25T04:17:51;10.60;99.90
3053;DHT22;1536;51.098;6.414;2023-03-25T04:20:22;10.60;99.90
3053;DHT22;1536;51.098;6.414;2023-03-25T04:22:50;10.60;99.90
3053;DHT22;1536;51.098;6.414;2023-03-25T04:25:18;10.60;99.90
3053;DHT22;1536;51.098;6.414;2023-03-25T04:27:47;10.60;99.90
3053;DHT22;1536;51.098;6.414;2023-03-25T04:30:15;10.60;99.90
3053;DHT22;1536;51.098;6.414;2023-03-25T04:32:43;10.60;99.90
3053;DHT22;1536;51.098;6.414;2023-03-25T04:35:11;10.60;99.90
3053;DHT22;1536;51.098;6.414;2023-03-25T04:37:38;10.60;99.90
3053;DHT22;1536;51.098;6.414;2023-03-25T04:40:07;10.60;99.90
3053;DHT22;1536;51.098;6.414;2023-03-25T04:42:34;10.60;99.90
3053;DHT22;1536;51.098;6.414;2023-03-25T04:45:03;10.60;99.90
3053;DHT22;1536;51.098;6.414;2023-03-25T04:47:30;10.60;99.90
3053;DHT22;1536;51.098;6.414;2023-03-25T04:50:17;10.60;99.90
3053;DHT22;1536;51.098;6.414;2023-03-25T04:52:44;10.60;99.90
3053;DHT22;1536;51.098;6.414;2023-03-25T04:55:11;10.60;99.90
3053;DHT22;1536;51.098;6.414;2023-03-25T04:57:43;10.60;99.90
3053;DHT22;1536;51.098;6.414;2023-03-25T05:00:13;10.60;99.90
3053;DHT22;1536;51.098;6.414;2023-03-25T05:02:43;10.60;99.90
3053;DHT22;1536;51.098;6.414;2023-03-25T05:05:11;10.60;99.90
3053;DHT22;1536;51.098;6.414;2023-03-25T05:07:43;10.60;99.90
3053;DHT22;1536;51.098;6.414;2023-03-25T05:10:12;10.60;99.90
3053;DHT22;1536;51.098;6.414;2023-03-25T05:12:39;10.60;99.90
3053;DHT22;1536;51.098;6.414;2023-03-25T05:15:07;10.60;99.90
3053;DHT22;1536;51.098;6.414;2023-03-25T05:17:35;10.60;99.90
3053;DHT22;1536;51.098;6.414;2023-03-25T05:20:03;10.60;99.90
3053;DHT22;1536;51.098;6.414;2023-03-25T05:22:32;10.60;99.90
3053;DHT22;1536;51.098;6.414;2023-03-25T05:24:59;10.60;99.90
3053;DHT22;1536;51.098;6.414;2023-03-25T05:27:27;10.50;99.90
3053;DHT22;1536;51.098;6.414;2023-03-25T05:29:55;10.50;99.90
3053;DHT22;1536;51.098;6.414;2023-03-25T05:32:23;10.60;99.90
3053;DHT22;1536;51.098;6.414;2023-03-25T05:34:51;10.50;99.90
3053;DHT22;1536;51.098;6.414;2023-03-25T05:37:18;10.50;99.90
3053;DHT22;1536;51.098;6.414;2023-03-25T05:39:45;10.50;99.90
3053;DHT22;1536;51.098;6.414;2023-03-25T05:42:12;10.50;99.90
3053;DHT22;1536;51.098;6.414;2023-03-25T05:44:39;10.60;99.90
3053;DHT22;1536;51.098;6.414;2023-03-25T05:47:11;10.50;99.90
3053;DHT22;1536;51.098;6.414;2023-03-25T05:49:38;10.60;99.90
3053;DHT22;1536;51.098;6.414;2023-03-25T05:52:07;10.60;99.90
3053;DHT22;1536;51.098;6.414;2023-03-25T05:54:36;10.60;99.90
3053;DHT22;1536;51.098;6.414;2023-03-25T05:57:03;10.60;99.90
3053;DHT22;1536;51.098;6.414;2023-03-25T05:59:30;10.60;99.90
3053;DHT22;1536;51.098;6.414;2023-03-25T06:01:57;10.60;99.90
3053;DHT22;1536;51.098;6.414;2023-03-25T06:04:24;10.60;99.90
3053;DHT22;1536;51.098;6.414;2023-03-25T06:06:51;10.60;99.90
3053;DHT22;1536;51.098;6.414;2023-03-25T06:09:19;10.60;99.90
3053;DHT22;1536;51.098;6.414;2023-03-25T06:11:46;10.50;99.90
3053;DHT22;1536;51.098;6.414;2023-03-25T06:14:17;10.50;99.90
3053;DHT22;1536;51.098;6.414;2023-03-25T06:16:45;10.40;99.90
3053;DHT22;1536;51.098;6.414;2023-03-25T06:19:14;10.40;99.90
3053;DHT22;1536;51.098;6.414;2023-03-25T06:21:42;10.40;99.90
3053;DHT22;1536;51.098;6.414;2023-03-25T06:24:13;10.40;99.90
3053;DHT22;1536;51.098;6.414;2023-03-25T06:26:41;10.40;99.90
3053;DHT22;1536;51.098;6.414;2023-03-25T06:29:08;10.40;99.90
3053;DHT22;1536;51.098;6.414;2023-03-25T06:31:35;10.40;99.90
3053;DHT22;1536;51.098;6.414;2023-03-25T06:34:02;10.40;99.90
3053;DHT22;1536;51.098;6.414;2023-03-25T06:36:29;10.50;99.90
3053;DHT22;1536;51.098;6.414;2023-03-25T06:38:56;10.40;99.90
3053;DHT22;1536;51.098;6.414;2023-03-25T06:41:23;10.40;99.90
3053;DHT22;1536;51.098;6.414;2023-03-25T06:43:51;10.40;99.90
3053;DHT22;1536;51.098;6.414;2023-03-25T06:46:18;10.40;99.90
3053;DHT22;1536;51.098;6.414;2023-03-25T06:48:45;10.40;99.90
3053;DHT22;1536;51.098;6.414;2023-03-25T06:51:12;10.40;99.90
3053;DHT22;1536;51.098;6.414;2023-03-25T06:53:38;10.40;99.90
3053;DHT22;1536;51.098;6.414;2023-03-25T06:56:06;10.40;99.90
3053;DHT22;1536;51.098;6.414;2023-03-25T06:58:33;10.50;99.90
3053;DHT22;1536;51.098;6.414;2023-03-25T07:01:02;10.40;99.90
3053;DHT22;1536;51.098;6.414;2023-03-25T07:03:31;10.50;99.90
3053;DHT22;1536;51.098;6.414;2023-03-25T07:05:58;10.50;99.90
3053;DHT22;1536;51.098;6.414;2023-03-25T07:08:25;10.50;99.90
3053;DHT22;1536;51.098;6.414;2023-03-25T07:10:51;10.50;99.90
3053;DHT22;1536;51.098;6.414;2023-03-25T07:13:18;10.50;99.90
3053;DHT22;1536;51.098;6.414;2023-03-25T07:15:45;10.60;99.90
3053;DHT22;1536;51.098;6.414;2023-03-25T07:18:13;10.60;99.90
3053;DHT22;1536;51.098;6.414;2023-03-25T07:20:39;10.60;99.90
3053;DHT22;1536;51.098;6.414;2023-03-25T07:23:07;10.60;99.90
3053;DHT22;1536;51.098;6.414;2023-03-25T07:25:34;10.60;99.90
3053;DHT22;1536;51.098;6.414;2023-03-25T07:28:01;10.60;99.90
3053;DHT22;1536;51.098;6.414;2023-03-25T07:30:28;10.60;99.90
3053;DHT22;1536;51.098;6.414;2023-03-25T07:32:55;10.60;99.90
3053;DHT22;1536;51.098;6.414;2023-03-25T07:35:23;10.60;99.90
3053;DHT22;1536;51.098;6.414;2023-03-25T07:37:50;10.60;99.90
3053;DHT22;1536;51.098;6.414;2023-03-25T07:40:17;10.50;99.90
3053;DHT22;1536;51.098;6.414;2023-03-25T07:42:44;10.50;99.90
3053;DHT22;1536;51.098;6.414;2023-03-25T07:45:11;10.60;99.90
3053;DHT22;1536;51.098;6.414;2023-03-25T07:47:38;10.60;99.90
3053;DHT22;1536;51.098;6.414;2023-03-25T07:50:06;10.60;99.90
3053;DHT22;1536;51.098;6.414;2023-03-25T07:52:34;10.60;99.90
3053;DHT22;1536;51.098;6.414;2023-03-25T07:55:01;10.70;99.90
3053;DHT22;1536;51.098;6.414;2023-03-25T07:57:27;10.70;99.90
3053;DHT22;1536;51.098;6.414;2023-03-25T07:59:54;10.80;99.90
3053;DHT22;1536;51.098;6.414;2023-03-25T08:02:21;10.90;99.90
3053;DHT22;1536;51.098;6.414;2023-03-25T08:04:47;10.90;99.90
3053;DHT22;1536;51.098;6.414;2023-03-25T08:07:14;10.90;99.90
3053;DHT22;1536;51.098;6.414;2023-03-25T08:09:42;11.00;99.90
3053;DHT22;1536;51.098;6.414;2023-03-25T08:12:09;11.00;99.90
3053;DHT22;1536;51.098;6.414;2023-03-25T08:14:35;11.00;99.90
3053;DHT22;1536;51.098;6.414;2023-03-25T08:17:04;11.00;99.90
3053;DHT22;1536;51.098;6.414;2023-03-25T08:19:30;11.00;99.90
3053;DHT22;1536;51.098;6.414;2023-03-25T08:21:57;11.10;99.90
3053;DHT22;1536;51.098;6.414;2023-03-25T08:24:24;11.10;99.90
3053;DHT22;1536;51.098;6.414;2023-03-25T08:26:55;11.20;99.90
3053;DHT22;1536;51.098;6.414;2023-03-25T08:29:22;11.30;99.90
3053;DHT22;1536;51.098;6.414;2023-03-25T08:31:49;11.30;99.90
3053;DHT22;1536;51.098;6.414;2023-03-25T08:34:17;11.30;99.90
3053;DHT22;1536;51.098;6.414;2023-03-25T08:36:44;11.30;99.90
3053;DHT22;1536;51.098;6.414;2023-03-25T08:39:11;11.30;99.90
3053;DHT22;1536;51.098;6.414;2023-03-25T08:41:41;11.40;99.90
3053;DHT22;1536;51.098;6.414;2023-03-25T08:44:10;11.40;99.90
3053;DHT22;1536;51.098;6.414;2023-03-25T08:46:37;11.50;99.90
3053;DHT22;1536;51.098;6.414;2023-03-25T08:49:04;11.50;99.90
3053;DHT22;1536;51.098;6.414;2023-03-25T08:51:31;11.60;99.90
3053;DHT22;1536;51.098;6.414;2023-03-25T08:53:58;11.60;99.90
3053;DHT22;1536;51.098;6.414;2023-03-25T08:56:25;11.60;99.90
3053;DHT22;1536;51.098;6.414;2023-03-25T08:58:52;11.70;99.90
3053;DHT22;1536;51.098;6.414;2023-03-25T09:01:20;11.80;99.90
3053;DHT22;1536;51.098;6.414;2023-03-25T09:03:48;11.80;99.90
3053;DHT22;1536;51.098;6.414;2023-03-25T09:06:15;11.90;99.90
3053;DHT22;1536;51.098;6.414;2023-03-25T09:08:42;11.90;99.90
3053;DHT22;1536;51.098;6.414;2023-03-25T09:11:09;11.90;99.90
3053;DHT22;1536;51.098;6.414;2023-03-25T09:13:36;12.00;99.90
3053;DHT22;1536;51.098;6.414;2023-03-25T09:16:03;12.00;99.90
3053;DHT22;1536;51.098;6.414;2023-03-25T09:18:31;12.10;99.90
3053;DHT22;1536;51.098;6.414;2023-03-25T09:21:01;12.20;99.90
3053;DHT22;1536;51.098;6.414;2023-03-25T09:23:28;12.20;99.90
3053;DHT22;1536;51.098;6.414;2023-03-25T09:25:58;12.20;99.90
3053;DHT22;1536;51.098;6.414;2023-03-25T09:28:25;12.20;99.90
3053;DHT22;1536;51.098;6.414;2023-03-25T09:30:53;12.30;99.90
3053;DHT22;1536;51.098;6.414;2023-03-25T09:33:19;12.30;99.90
3053;DHT22;1536;51.098;6.414;2023-03-25T09:35:48;12.30;99.90
3053;DHT22;1536;51.098;6.414;2023-03-25T09:38:15;12.30;99.90
3053;DHT22;1536;51.098;6.414;2023-03-25T09:40:42;12.30;99.90
3053;DHT22;1536;51.098;6.414;2023-03-25T09:43:23;12.30;99.90
3053;DHT22;1536;51.098;6.414;2023-03-25T09:45:51;12.30;99.90
3053;DHT22;1536;51.098;6.414;2023-03-25T09:48:25;12.40;99.90
3053;DHT22;1536;51.098;6.414;2023-03-25T09:50:55;12.40;99.90
3053;DHT22;1536;51.098;6.414;2023-03-25T09:53:27;12.40;99.90
3053;DHT22;1536;51.098;6.414;2023-03-25T09:55:55;12.40;99.90
3053;DHT22;1536;51.098;6.414;2023-03-25T09:58:27;12.40;99.90
3053;DHT22;1536;51.098;6.414;2023-03-25T10:00:59;12.50;99.90
3053;DHT22;1536;51.098;6.414;2023-03-25T10:03:32;12.50;99.90
3053;DHT22;1536;51.098;6.414;2023-03-25T10:06:12;12.60;99.90
3053;DHT22;1536;51.098;6.414;2023-03-25T10:08:49;12.60;99.90
3053;DHT22;1536;51.098;6.414;2023-03-25T10:11:22;12.70;99.90
3053;DHT22;1536;51.098;6.414;2023-03-25T10:13:54;12.70;99.90
3053;DHT22;1536;51.098;6.414;2023-03-25T10:16:29;12.70;99.90
3053;DHT22;1536;51.098;6.414;2023-03-25T10:19:09;12.80;99.90
3053;DHT22;1536;51.098;6.414;2023-03-25T10:21:46;12.90;99.90
3053;DHT22;1536;51.098;6.414;2023-03-25T10:24:17;13.00;99.90
3053;DHT22;1536;51.098;6.414;2023-03-25T10:26:47;13.00;99.90
3053;DHT22;1536;51.098;6.414;2023-03-25T10:29:20;13.10;99.90
3053;DHT22;1536;51.098;6.414;2023-03-25T10:31:50;13.10;99.90
3053;DHT22;1536;51.098;6.414;2023-03-25T10:34:19;13.10;99.90
3053;DHT22;1536;51.098;6.414;2023-03-25T10:36:52;13.10;99.90
3053;DHT22;1536;51.098;6.414;2023-03-25T10:39:23;13.10;99.90
3053;DHT22;1536;51.098;6.414;2023-03-25T10:42:03;13.00;99.90
3053;DHT22;1536;51.098;6.414;2023-03-25T10:44:39;13.10;99.90
3053;DHT22;1536;51.098;6.414;2023-03-25T10:47:09;13.20;99.90
3053;DHT22;1536;51.098;6.414;2023-03-25T10:49:39;13.20;99.90
3053;DHT22;1536;51.098;6.414;2023-03-25T10:52:08;13.20;99.90
3053;DHT22;1536;51.098;6.414;2023-03-25T10:54:38;13.10;99.90
3053;DHT22;1536;51.098;6.414;2023-03-25T10:57:08;13.10;99.90
3053;DHT22;1536;51.098;6.414;2023-03-25T10:59:38;13.10;99.90
3053;DHT22;1536;51.098;6.414;2023-03-25T11:02:13;13.20;99.90
3053;DHT22;1536;51.098;6.414;2023-03-25T11:04:42;13.20;99.90
3053;DHT22;1536;51.098;6.414;2023-03-25T11:07:16;13.20;99.90
3053;DHT22;1536;51.098;6.414;2023-03-25T11:09:44;13.20;99.90
3053;DHT22;1536;51.098;6.414;2023-03-25T11:12:17;13.20;99.90
3053;DHT22;1536;51.098;6.414;2023-03-25T11:14:53;13.20;99.90
3053;DHT22;1536;51.098;6.414;2023-03-25T11:17:21;13.10;99.90
3053;DHT22;1536;51.098;6.414;2023-03-25T11:19:53;13.10;99.90
3053;DHT22;1536;51.098;6.414;2023-03-25T11:22:26;13.10;99.90
3053;DHT22;1536;51.098;6.414;2023-03-25T11:24:59;13.20;99.90
3053;DHT22;1536;51.098;6.414;2023-03-25T11:27:28;13.20;99.90
3053;DHT22;1536;51.098;6.414;2023-03-25T11:29:59;13.30;99.90
3053;DHT22;1536;51.098;6.414;2023-03-25T11:32:32;13.30;99.90
3053;DHT22;1536;51.098;6.414;2023-03-25T11:35:00;13.40;99.90
3053;DHT22;1536;51.098;6.414;2023-03-25T11:37:30;13.30;99.90
3053;DHT22;1536;51.098;6.414;2023-03-25T11:40:04;13.30;99.90
3053;DHT22;1536;51.098;6.414;2023-03-25T11:42:39;13.20;99.90
3053;DHT22;1536;51.098;6.414;2023-03-25T11:45:18;13.10;99.90
3053;DHT22;1536;51.098;6.414;2023-03-25T11:47:45;13.00;99.90
3053;DHT22;1536;51.098;6.414;2023-03-25T11:50:20;12.90;99.90
3053;DHT22;1536;51.098;6.414;2023-03-25T11:52:51;12.80;99.90
3053;DHT22;1536;51.098;6.414;2023-03-25T11:55:22;12.70;99.90
3053;DHT22;1536;51.098;6.414;2023-03-25T11:57:51;12.60;99.90
3053;DHT22;1536;51.098;6.414;2023-03-25T12:00:38;12.50;99.90
3053;DHT22;1536;51.098;6.414;2023-03-25T12:03:17;12.40;99.90
3053;DHT22;1536;51.098;6.414;2023-03-25T12:05:57;12.40;99.90
3053;DHT22;1536;51.098;6.414;2023-03-25T12:08:28;12.30;99.90
3053;DHT22;1536;51.098;6.414;2023-03-25T12:10:59;12.20;99.90
3053;DHT22;1536;51.098;6.414;2023-03-25T12:13:38;12.20;99.90
3053;DHT22;1536;51.098;6.414;2023-03-25T12:16:19;12.20;99.90
3053;DHT22;1536;51.098;6.414;2023-03-25T12:18:56;12.20;99.90
3053;DHT22;1536;51.098;6.414;2023-03-25T12:21:36;12.20;99.90
3053;DHT22;1536;51.098;6.414;2023-03-25T12:24:18;12.30;99.90
3053;DHT22;1536;51.098;6.414;2023-03-25T12:26:58;12.30;99.90
3053;DHT22;1536;51.098;6.414;2023-03-25T12:29:34;12.40;99.90
3053;DHT22;1536;51.098;6.414;2023-03-25T12:32:16;12.40;99.90
3053;DHT22;1536;51.098;6.414;2023-03-25T12:34:55;12.40;99.90
3053;DHT22;1536;51.098;6.414;2023-03-25T12:37:29;12.40;99.90
3053;DHT22;1536;51.098;6.414;2023-03-25T12:40:18;12.40;99.90
3053;DHT22;1536;51.098;6.414;2023-03-25T12:42:55;12.40;99.90
3053;DHT22;1536;51.098;6.414;2023-03-25T12:45:46;12.40;99.90
3053;DHT22;1536;51.098;6.414;2023-03-25T12:48:24;12.30;99.90
3053;DHT22;1536;51.098;6.414;2023-03-25T12:51:03;12.30;99.90
3053;DHT22;1536;51.098;6.414;2023-03-25T12:53:42;12.30;99.90
3053;DHT22;1536;51.098;6.414;2023-03-25T12:56:28;12.30;99.90
3053;DHT22;1536;51.098;6.414;2023-03-25T12:59:32;12.20;99.90
3053;DHT22;1536;51.098;6.414;2023-03-25T13:02:14;12.20;99.90
3053;DHT22;1536;51.098;6.414;2023-03-25T13:05:00;12.10;99.90
3053;DHT22;1536;51.098;6.414;2023-03-25T13:07:34;12.00;99.90
3053;DHT22;1536;51.098;6.414;2023-03-25T13:10:10;12.00;99.90
3053;DHT22;1536;51.098;6.414;2023-03-25T13:12:42;11.90;99.90
3053;DHT22;1536;51.098;6.414;2023-03-25T13:15:15;11.60;99.90
3053;DHT22;1536;51.098;6.414;2023-03-25T13:17:46;11.40;99.90
3053;DHT22;1536;51.098;6.414;2023-03-25T13:20:14;11.20;99.90
3053;DHT22;1536;51.098;6.414;2023-03-25T13:22:44;11.10;99.90
3053;DHT22;1536;51.098;6.414;2023-03-25T13:25:19;11.10;99.90
3053;DHT22;1536;51.098;6.414;2023-03-25T13:27:49;11.00;99.90
3053;DHT22;1536;51.098;6.414;2023-03-25T13:30:22;10.90;99.90
3053;DHT22;1536;51.098;6.414;2023-03-25T13:32:54;10.90;99.90
3053;DHT22;1536;51.098;6.414;2023-03-25T13:35:29;10.90;99.90
3053;DHT22;1536;51.098;6.414;2023-03-25T13:38:03;11.00;99.90
3053;DHT22;1536;51.098;6.414;2023-03-25T13:40:36;11.00;99.90
3053;DHT22;1536;51.098;6.414;2023-03-25T13:43:13;11.10;99.90
3053;DHT22;1536;51.098;6.414;2023-03-25T13:45:49;11.20;99.90
3053;DHT22;1536;51.098;6.414;2023-03-25T13:48:19;11.20;99.90
3053;DHT22;1536;51.098;6.414;2023-03-25T13:50:49;11.30;99.90
3053;DHT22;1536;51.098;6.414;2023-03-25T13:53:19;11.30;99.90
3053;DHT22;1536;51.098;6.414;2023-03-25T13:55:54;11.40;99.90
3053;DHT22;1536;51.098;6.414;2023-03-25T13:58:37;11.40;99.90
3053;DHT22;1536;51.098;6.414;2023-03-25T14:01:26;11.40;99.90
3053;DHT22;1536;51.098;6.414;2023-03-25T14:04:34;11.50;99.90
3053;DHT22;1536;51.098;6.414;2023-03-25T14:07:27;11.60;99.90
3053;DHT22;1536;51.098;6.414;2023-03-25T14:13:01;11.80;99.90
3053;DHT22;1536;51.098;6.414;2023-03-25T14:15:32;11.80;99.90
3053;DHT22;1536;51.098;6.414;2023-03-25T14:18:01;11.90;99.90
3053;DHT22;1536;51.098;6.414;2023-03-25T14:20:32;12.00;99.90
3053;DHT22;1536;51.098;6.414;2023-03-25T14:23:02;12.00;99.90
3053;DHT22;1536;51.098;6.414;2023-03-25T14:25:33;12.10;99.90
3053;DHT22;1536;51.098;6.414;2023-03-25T14:28:03;12.20;99.90
3053;DHT22;1536;51.098;6.414;2023-03-25T14:30:33;12.20;99.90
3053;DHT22;1536;51.098;6.414;2023-03-25T14:33:00;12.30;99.90
3053;DHT22;1536;51.098;6.414;2023-03-25T14:35:48;12.40;99.90
3053;DHT22;1536;51.098;6.414;2023-03-25T14:38:49;12.40;99.90
3053;DHT22;1536;51.098;6.414;2023-03-25T14:41:16;12.40;99.90
3053;DHT22;1536;51.098;6.414;2023-03-25T14:43:44;12.40;99.90
3053;DHT22;1536;51.098;6.414;2023-03-25T14:46:21;12.50;99.90
3053;DHT22;1536;51.098;6.414;2023-03-25T14:48:51;12.40;99.90
3053;DHT22;1536;51.098;6.414;2023-03-25T14:56:59;12.20;99.90
3053;DHT22;1536;51.098;6.414;2023-03-25T14:59:31;12.00;99.90
3053;DHT22;1536;51.098;6.414;2023-03-25T15:02:13;12.00;99.90
3053;DHT22;1536;51.098;6.414;2023-03-25T15:04:42;11.80;99.90
3053;DHT22;1536;51.098;6.414;2023-03-25T15:07:14;11.90;99.90
3053;DHT22;1536;51.098;6.414;2023-03-25T15:09:45;11.90;99.90
3053;DHT22;1536;51.098;6.414;2023-03-25T15:12:18;12.00;99.90
3053;DHT22;1536;51.098;6.414;2023-03-25T15:14:48;12.10;99.90
3053;DHT22;1536;51.098;6.414;2023-03-25T15:17:44;12.10;99.90
3053;DHT22;1536;51.098;6.414;2023-03-25T15:20:29;12.10;99.90
3053;DHT22;1536;51.098;6.414;2023-03-25T15:23:29;12.00;99.90
3053;DHT22;1536;51.098;6.414;2023-03-25T15:25:58;11.90;99.90
3053;DHT22;1536;51.098;6.414;2023-03-25T15:28:57;11.90;99.90
3053;DHT22;1536;51.098;6.414;2023-03-25T15:31:42;12.00;99.90
3053;DHT22;1536;51.098;6.414;2023-03-25T15:34:29;12.00;99.90
3053;DHT22;1536;51.098;6.414;2023-03-25T15:37:17;12.10;99.90
3053;DHT22;1536;51.098;6.414;2023-03-25T15:40:01;12.20;99.90
3053;DHT22;1536;51.098;6.414;2023-03-25T15:42:41;12.20;99.90
3053;DHT22;1536;51.098;6.414;2023-03-25T15:45:33;12.20;99.90
3053;DHT22;1536;51.098;6.414;2023-03-25T15:48:13;12.20;99.90
3053;DHT22;1536;51.098;6.414;2023-03-25T15:50:57;12.20;99.90
3053;DHT22;1536;51.098;6.414;2023-03-25T15:53:49;12.30;99.90
3053;DHT22;1536;51.098;6.414;2023-03-25T15:56:20;12.30;99.90
3053;DHT22;1536;51.098;6.414;2023-03-25T15:58:54;12.40;99.90
3053;DHT22;1536;51.098;6.414;2023-03-25T16:01:26;12.40;99.90
3053;DHT22;1536;51.098;6.414;2023-03-25T16:03:58;12.40;99.90
3053;DHT22;1536;51.098;6.414;2023-03-25T16:06:28;12.30;99.90
3053;DHT22;1536;51.098;6.414;2023-03-25T16:08:57;12.30;99.90
3053;DHT22;1536;51.098;6.414;2023-03-25T16:11:26;12.30;99.90
3053;DHT22;1536;51.098;6.414;2023-03-25T16:14:09;12.30;99.90
3053;DHT22;1536;51.098;6.414;2023-03-25T16:16:39;12.30;99.90
3053;DHT22;1536;51.098;6.414;2023-03-25T16:19:10;12.30;99.90
3053;DHT22;1536;51.098;6.414;2023-03-25T16:21:39;12.30;99.90
3053;DHT22;1536;51.098;6.414;2023-03-25T16:24:07;12.30;99.90
3053;DHT22;1536;51.098;6.414;2023-03-25T16:26:39;12.30;99.90
3053;DHT22;1536;51.098;6.414;2023-03-25T16:29:09;12.30;99.90
3053;DHT22;1536;51.098;6.414;2023-03-25T16:31:48;12.30;99.90
3053;DHT22;1536;51.098;6.414;2023-03-25T16:34:15;12.20;99.90
3053;DHT22;1536;51.098;6.414;2023-03-25T16:36:44;12.30;99.90
3053;DHT22;1536;51.098;6.414;2023-03-25T16:39:13;12.20;99.90
3053;DHT22;1536;51.098;6.414;2023-03-25T16:41:44;12.10;99.90
3053;DHT22;1536;51.098;6.414;2023-03-25T16:44:14;12.00;99.90
3053;DHT22;1536;51.098;6.414;2023-03-25T16:46:43;12.00;99.90
3053;DHT22;1536;51.098;6.414;2023-03-25T16:49:13;11.90;99.90